To NAV CANADA Home Page Login to a new session Search on AWWS site Feedback and Comments Disclaimer Vers la page française équivalente Tips FAQ What's new on the site To the Forecasts and Observations / NOTAM section To "File a Flight Plan" website Publications and other links Update of the User's profile FIC Telephone Numbers My Weather Data Folder Route Weather Data Regional Weather Data Local Weather Data To the Forecasts and Observations / NOTAM section
Request Generated 05/01/2016 at 02:21:38 UTC . Weather information available at that time is displayed.

METAR/TAF

CHURCHILL/MB    (show WxCam)

METAR CYYQ 010200Z 13012KT 15SM FEW120 SCT250 M03/M04 A3034 RMK
AC2CI2 SLP279=
METAR CYYQ 010100Z 13016KT 15SM FEW130 BKN250 M01/M03 A3034 RMK
AC2CI4 SLP279=
METAR CYYQ 010000Z 12014KT 15SM FEW150 BKN210 00/M03 A3036 RMK AC1CI5
SLP286=

TAF CYYQ 302338Z 0100/0124 13015KT P6SM FEW120 BKN200
FM010400 15015KT P6SM BKN090 BKN160
FM011800 18015KT P6SM SCT160 SCT240
RMK NXT FCST BY 010600Z=
Your time UTC time
Weather data provided by Environment Canada and NAV CANADA